Carnival Valor — H3VR — position and weather

sailwx.info

Track history (hours):
 
Tides and Currents Weather Stations Pressure Air Temp Water Temp Dewpoint Dewpoint Depression Visibility Wind Speed Wind Dir Waves Ship Positions

Carnival Valor

Last reported at 2020-Apr-05 07:58 UTC. Time now 2020-Apr-05 13:42 UTC.
Position N 30°05' W 088°48'.

Type: Ship. MMSI: 354298000.

Date/timePositionNaut miles runAvg speedWind from/ knotsBaromVisibWave heightAir tempDewpointWater temp
2020-Apr-05 07:58N 30°05' W 088°48'0 0.0
2020-Apr-05 07:28N 30°05' W 088°48'0 0.0
2020-Apr-05 07:00N 30°05' W 088°48'0 0.0
2020-Apr-05 06:30N 30°05' W 088°48'0 0.0
2020-Apr-05 01:10N 30°06' W 088°48'0 0.0
2020-Apr-04 23:30N 30°06' W 088°48'0 0.0
2020-Apr-04 21:59N 30°06' W 088°48'0 0.0
2020-Apr-04 21:29N 30°06' W 088°48'0 0.0
2020-Apr-04 19:46N 30°06' W 088°48'0 0.0
2020-Apr-04 19:28N 30°06' W 088°48'0 0.0
2020-Apr-04 17:00N 30°05' W 088°48'0 0.0
2020-Apr-04 15:45N 30°05' W 088°48'0 0.0
2020-Apr-04 14:57N 30°05' W 088°48'0 0.0
2020-Apr-04 14:17N 30°05' W 088°48'0 0.0
2020-Apr-04 13:59N 30°05' W 088°48'0 0.0
2020-Apr-04 13:29N 30°05' W 088°48'0 0.0
2020-Apr-04 11:22N 30°05' W 088°48'0 0.0
2020-Apr-04 10:52N 30°05' W 088°48'0 0.0
2020-Apr-04 10:18N 30°05' W 088°48'0 0.0
2020-Apr-04 09:39N 30°05' W 088°48'0 0.0
2020-Apr-03 22:28N 30°06' W 088°48'0 0.0
2020-Apr-03 21:58N 30°06' W 088°48'0 0.0
2020-Apr-03 21:16N 30°06' W 088°48'0 0.0
2020-Apr-03 20:03N 30°06' W 088°48'7123.3
2020-Apr-03 20:00N 30°00' W 088°42'715.1 1015.7
2020-Apr-03 19:30N 30°06' W 088°48'0 0.0
2020-Apr-03 16:29N 30°05' W 088°48'0 0.0
2020-Apr-03 15:58N 30°05' W 088°48'0 0.0
2020-Apr-03 15:28N 30°05' W 088°48'0 0.0
2020-Apr-03 13:00N 30°05' W 088°48'0 0.0
2020-Apr-03 05:24N 30°05' W 088°48'0 0.0
2020-Apr-02 21:20N 30°06' W 088°48'0 0.1
2020-Apr-02 20:59N 30°06' W 088°48'0 0.0
2020-Apr-02 18:52N 30°06' W 088°48'0 0.0
2020-Apr-02 11:46N 30°05' W 088°48'0 0.0
2020-Apr-02 10:25N 30°05' W 088°48'0 0.0
2020-Apr-02 09:30N 30°05' W 088°48'0 0.1
2020-Apr-02 08:00N 30°06' W 088°48'0 0.0
2020-Apr-02 07:29N 30°06' W 088°48'0 0.0
2020-Apr-02 05:25N 30°06' W 088°48'6 0.9
2020-Apr-01 22:30N 30°07' W 088°41'9 9.5
2020-Apr-01 21:30N 30°07' W 088°30'611.4
2020-Apr-01 21:00N 30°03' W 088°25'3 0.1
2020-Mar-31 16:30N 30°00' W 088°24'611.9
2020-Mar-31 15:58N 30°05' W 088°29'17 1.3
2020-Mar-31 03:01N 30°05' W 088°48'0 0.0
2020-Mar-30 14:29N 30°05' W 088°48'0 0.1
2020-Mar-30 13:56N 30°05' W 088°48'0 0.0
2020-Mar-30 11:49N 30°05' W 088°48'0 0.0
2020-Mar-30 10:30N 30°05' W 088°48'0 0.0
2020-Mar-30 08:26N 30°05' W 088°48'0 0.1
2020-Mar-30 07:50N 30°05' W 088°48'0 0.0
2020-Mar-30 05:58N 30°05' W 088°48'0 0.0
2020-Mar-30 05:28N 30°05' W 088°48'0 0.0
2020-Mar-30 04:07N 30°05' W 088°48'0 0.0
2020-Mar-29 21:13N 30°06' W 088°48'0 0.0
2020-Mar-29 20:27N 30°06' W 088°48'0 0.0
2020-Mar-29 19:18N 30°06' W 088°48'0 0.0
2020-Mar-29 14:28N 30°06' W 088°48'0 0.0
2020-Mar-29 13:30N 30°06' W 088°48'0 0.0
2020-Mar-29 13:00N 30°06' W 088°48'0 0.0
2020-Mar-29 12:30N 30°06' W 088°48'0 0.0
2020-Mar-29 11:26N 30°06' W 088°48'0 0.0
2020-Mar-29 08:58N 30°06' W 088°48'0 0.0
2020-Mar-29 03:26N 30°06' W 088°48'0 0.1
2020-Mar-29 02:16N 30°05' W 088°48'0 0.0
2020-Mar-28 23:39N 30°05' W 088°48'0 0.2
2020-Mar-28 23:30N 30°05' W 088°48'13 5.1
2020-Mar-28 21:00N 30°13' W 088°60'10 6.3
2020-Mar-28 19:30N 30°21' W 089°06'22 0.6
2020-Mar-27 05:56N 30°06' W 088°48'0 0.0
2020-Mar-27 03:19N 30°06' W 088°48'0 0.0
2020-Mar-26 14:31N 30°05' W 088°48'0 0.0
2020-Mar-26 13:28N 30°05' W 088°48'4 1.7
2020-Mar-26 10:59N 30°06' W 088°43'7 6.7
2020-Mar-26 10:00N 30°07' W 088°36'  
Track history (hours):
 
Tides and Currents Weather Stations Pressure Air Temp Water Temp Dewpoint Dewpoint Depression Visibility Wind Speed Wind Dir Waves Ship Positions

Carnival Valor

Last reported at 2020-Apr-05 07:58 UTC. Time now 2020-Apr-05 13:42 UTC.
Position N 30°05' W 088°48'.

Type: Ship. MMSI: 354298000.

Date/timePositionNaut miles runAvg speedWind from/ knotsBaromVisibWave heightAir tempDewpointWater temp
2020-Apr-05 07:58N 30°05' W 088°48'0 0.0
2020-Apr-05 07:28N 30°05' W 088°48'0 0.0
2020-Apr-05 07:00N 30°05' W 088°48'0 0.0
2020-Apr-05 06:30N 30°05' W 088°48'0 0.0
2020-Apr-05 01:10N 30°06' W 088°48'0 0.0
2020-Apr-04 23:30N 30°06' W 088°48'0 0.0
2020-Apr-04 21:59N 30°06' W 088°48'0 0.0
2020-Apr-04 21:29N 30°06' W 088°48'0 0.0
2020-Apr-04 19:46N 30°06' W 088°48'0 0.0
2020-Apr-04 19:28N 30°06' W 088°48'0 0.0
2020-Apr-04 17:00N 30°05' W 088°48'0 0.0
2020-Apr-04 15:45N 30°05' W 088°48'0 0.0
2020-Apr-04 14:57N 30°05' W 088°48'0 0.0
2020-Apr-04 14:17N 30°05' W 088°48'0 0.0
2020-Apr-04 13:59N 30°05' W 088°48'0 0.0
2020-Apr-04 13:29N 30°05' W 088°48'0 0.0
2020-Apr-04 11:22N 30°05' W 088°48'0 0.0
2020-Apr-04 10:52N 30°05' W 088°48'0 0.0
2020-Apr-04 10:18N 30°05' W 088°48'0 0.0
2020-Apr-04 09:39N 30°05' W 088°48'0 0.0
2020-Apr-03 22:28N 30°06' W 088°48'0 0.0
2020-Apr-03 21:58N 30°06' W 088°48'0 0.0
2020-Apr-03 21:16N 30°06' W 088°48'0 0.0
2020-Apr-03 20:03N 30°06' W 088°48'7123.3
2020-Apr-03 20:00N 30°00' W 088°42'715.1 1015.7
2020-Apr-03 19:30N 30°06' W 088°48'0 0.0
2020-Apr-03 16:29N 30°05' W 088°48'0 0.0
2020-Apr-03 15:58N 30°05' W 088°48'0 0.0
2020-Apr-03 15:28N 30°05' W 088°48'0 0.0
2020-Apr-03 13:00N 30°05' W 088°48'0 0.0
2020-Apr-03 05:24N 30°05' W 088°48'0 0.0
2020-Apr-02 21:20N 30°06' W 088°48'0 0.1
2020-Apr-02 20:59N 30°06' W 088°48'0 0.0
2020-Apr-02 18:52N 30°06' W 088°48'0 0.0
2020-Apr-02 11:46N 30°05' W 088°48'0 0.0
2020-Apr-02 10:25N 30°05' W 088°48'0 0.0
2020-Apr-02 09:30N 30°05' W 088°48'0 0.1
2020-Apr-02 08:00N 30°06' W 088°48'0 0.0
2020-Apr-02 07:29N 30°06' W 088°48'0 0.0
2020-Apr-02 05:25N 30°06' W 088°48'6 0.9
2020-Apr-01 22:30N 30°07' W 088°41'9 9.5
2020-Apr-01 21:30N 30°07' W 088°30'611.4
2020-Apr-01 21:00N 30°03' W 088°25'3 0.1
2020-Mar-31 16:30N 30°00' W 088°24'611.9
2020-Mar-31 15:58N 30°05' W 088°29'17 1.3
2020-Mar-31 03:01N 30°05' W 088°48'0 0.0
2020-Mar-30 14:29N 30°05' W 088°48'0 0.1
2020-Mar-30 13:56N 30°05' W 088°48'0 0.0
2020-Mar-30 11:49N 30°05' W 088°48'0 0.0
2020-Mar-30 10:30N 30°05' W 088°48'0 0.0
2020-Mar-30 08:26N 30°05' W 088°48'0 0.1
2020-Mar-30 07:50N 30°05' W 088°48'0 0.0
2020-Mar-30 05:58N 30°05' W 088°48'0 0.0
2020-Mar-30 05:28N 30°05' W 088°48'0 0.0
2020-Mar-30 04:07N 30°05' W 088°48'0 0.0
2020-Mar-29 21:13N 30°06' W 088°48'0 0.0
2020-Mar-29 20:27N 30°06' W 088°48'0 0.0
2020-Mar-29 19:18N 30°06' W 088°48'0 0.0
2020-Mar-29 14:28N 30°06' W 088°48'0 0.0
2020-Mar-29 13:30N 30°06' W 088°48'0 0.0
2020-Mar-29 13:00N 30°06' W 088°48'0 0.0
2020-Mar-29 12:30N 30°06' W 088°48'0 0.0
2020-Mar-29 11:26N 30°06' W 088°48'0 0.0
2020-Mar-29 08:58N 30°06' W 088°48'0 0.0
2020-Mar-29 03:26N 30°06' W 088°48'0 0.1
2020-Mar-29 02:16N 30°05' W 088°48'0 0.0
2020-Mar-28 23:39N 30°05' W 088°48'0 0.2
2020-Mar-28 23:30N 30°05' W 088°48'13 5.1
2020-Mar-28 21:00N 30°13' W 088°60'10 6.3
2020-Mar-28 19:30N 30°21' W 089°06'22 0.6
2020-Mar-27 05:56N 30°06' W 088°48'0 0.0
2020-Mar-27 03:19N 30°06' W 088°48'0 0.0
2020-Mar-26 14:31N 30°05' W 088°48'0 0.0
2020-Mar-26 13:28N 30°05' W 088°48'4 1.7
2020-Mar-26 10:59N 30°06' W 088°43'7 6.7
2020-Mar-26 10:00N 30°07' W 088°36'  

Dump ship's entire track history